sensor_id;sensor_type;location;lat;lon;timestamp;P1;durP1;ratioP1;P2;durP2;ratioP2
22336;SDS011;14992;50.844;4.418;2023-05-07T00:00:06;5.80;;;3.03;;
22336;SDS011;14992;50.844;4.418;2023-05-07T00:02:36;5.28;;;3.00;;
22336;SDS011;14992;50.844;4.418;2023-05-07T00:05:06;5.78;;;3.53;;
22336;SDS011;14992;50.844;4.418;2023-05-07T00:07:36;6.00;;;3.33;;
22336;SDS011;14992;50.844;4.418;2023-05-07T00:10:05;7.18;;;3.08;;
22336;SDS011;14992;50.844;4.418;2023-05-07T00:12:35;6.25;;;3.42;;
22336;SDS011;14992;50.844;4.418;2023-05-07T00:15:04;7.30;;;3.28;;
22336;SDS011;14992;50.844;4.418;2023-05-07T00:17:36;5.32;;;3.35;;
22336;SDS011;14992;50.844;4.418;2023-05-07T00:20:06;7.53;;;3.70;;
22336;SDS011;14992;50.844;4.418;2023-05-07T00:22:36;6.30;;;3.35;;
22336;SDS011;14992;50.844;4.418;2023-05-07T00:25:06;5.70;;;3.78;;
22336;SDS011;14992;50.844;4.418;2023-05-07T00:27:35;6.53;;;3.40;;
22336;SDS011;14992;50.844;4.418;2023-05-07T00:30:05;7.07;;;2.92;;
22336;SDS011;14992;50.844;4.418;2023-05-07T00:35:06;3.85;;;3.17;;
22336;SDS011;14992;50.844;4.418;2023-05-07T00:37:36;7.20;;;3.45;;
22336;SDS011;14992;50.844;4.418;2023-05-07T00:40:05;6.38;;;3.65;;
22336;SDS011;14992;50.844;4.418;2023-05-07T00:42:36;7.10;;;3.28;;
22336;SDS011;14992;50.844;4.418;2023-05-07T00:45:07;6.10;;;3.45;;
22336;SDS011;14992;50.844;4.418;2023-05-07T00:47:37;8.82;;;3.40;;
22336;SDS011;14992;50.844;4.418;2023-05-07T00:50:07;5.80;;;3.38;;
22336;SDS011;14992;50.844;4.418;2023-05-07T00:52:38;5.57;;;3.50;;
22336;SDS011;14992;50.844;4.418;2023-05-07T00:55:08;6.03;;;2.90;;
22336;SDS011;14992;50.844;4.418;2023-05-07T00:57:39;8.13;;;3.42;;
22336;SDS011;14992;50.844;4.418;2023-05-07T01:00:11;6.47;;;2.97;;
22336;SDS011;14992;50.844;4.418;2023-05-07T01:02:42;4.22;;;2.88;;
22336;SDS011;14992;50.844;4.418;2023-05-07T01:05:12;4.35;;;2.70;;
22336;SDS011;14992;50.844;4.418;2023-05-07T01:07:44;7.80;;;3.38;;
22336;SDS011;14992;50.844;4.418;2023-05-07T01:10:13;9.65;;;3.38;;
22336;SDS011;14992;50.844;4.418;2023-05-07T01:12:43;7.25;;;3.20;;
22336;SDS011;14992;50.844;4.418;2023-05-07T01:15:15;9.07;;;3.20;;
22336;SDS011;14992;50.844;4.418;2023-05-07T01:17:45;8.10;;;3.53;;
22336;SDS011;14992;50.844;4.418;2023-05-07T01:20:21;6.18;;;3.85;;
22336;SDS011;14992;50.844;4.418;2023-05-07T01:22:55;6.00;;;3.35;;
22336;SDS011;14992;50.844;4.418;2023-05-07T01:25:25;7.38;;;3.35;;
22336;SDS011;14992;50.844;4.418;2023-05-07T01:30:31;5.15;;;2.90;;
22336;SDS011;14992;50.844;4.418;2023-05-07T01:33:06;5.22;;;3.10;;
22336;SDS011;14992;50.844;4.418;2023-05-07T01:35:40;4.95;;;3.03;;
22336;SDS011;14992;50.844;4.418;2023-05-07T01:38:16;5.57;;;2.67;;
22336;SDS011;14992;50.844;4.418;2023-05-07T01:40:46;4.30;;;3.28;;
22336;SDS011;14992;50.844;4.418;2023-05-07T01:43:15;7.28;;;3.42;;
22336;SDS011;14992;50.844;4.418;2023-05-07T01:45:45;7.57;;;3.75;;
22336;SDS011;14992;50.844;4.418;2023-05-07T01:48:16;8.68;;;3.65;;
22336;SDS011;14992;50.844;4.418;2023-05-07T01:50:45;4.78;;;3.13;;
22336;SDS011;14992;50.844;4.418;2023-05-07T01:53:16;5.40;;;3.42;;
22336;SDS011;14992;50.844;4.418;2023-05-07T01:55:45;4.85;;;3.13;;
22336;SDS011;14992;50.844;4.418;2023-05-07T01:58:15;7.15;;;3.80;;
22336;SDS011;14992;50.844;4.418;2023-05-07T02:00:44;6.90;;;3.20;;
22336;SDS011;14992;50.844;4.418;2023-05-07T02:03:13;7.68;;;4.20;;
22336;SDS011;14992;50.844;4.418;2023-05-07T02:05:51;8.05;;;3.17;;
22336;SDS011;14992;50.844;4.418;2023-05-07T02:08:40;7.68;;;3.38;;
22336;SDS011;14992;50.844;4.418;2023-05-07T02:11:11;6.07;;;3.63;;
22336;SDS011;14992;50.844;4.418;2023-05-07T02:13:40;8.75;;;3.63;;
22336;SDS011;14992;50.844;4.418;2023-05-07T02:16:10;9.23;;;3.80;;
22336;SDS011;14992;50.844;4.418;2023-05-07T02:18:41;5.50;;;3.80;;
22336;SDS011;14992;50.844;4.418;2023-05-07T02:21:10;7.97;;;4.00;;
22336;SDS011;14992;50.844;4.418;2023-05-07T02:23:38;8.68;;;3.30;;
22336;SDS011;14992;50.844;4.418;2023-05-07T02:26:09;8.82;;;3.85;;
22336;SDS011;14992;50.844;4.418;2023-05-07T02:28:38;5.57;;;4.00;;
22336;SDS011;14992;50.844;4.418;2023-05-07T02:31:07;7.13;;;3.40;;
22336;SDS011;14992;50.844;4.418;2023-05-07T02:33:36;8.00;;;3.17;;
22336;SDS011;14992;50.844;4.418;2023-05-07T02:36:08;7.30;;;3.90;;
22336;SDS011;14992;50.844;4.418;2023-05-07T02:38:56;8.95;;;3.40;;
22336;SDS011;14992;50.844;4.418;2023-05-07T02:41:25;6.95;;;3.70;;
22336;SDS011;14992;50.844;4.418;2023-05-07T02:43:55;6.35;;;3.47;;
22336;SDS011;14992;50.844;4.418;2023-05-07T02:46:24;7.57;;;3.60;;
22336;SDS011;14992;50.844;4.418;2023-05-07T02:48:59;12.60;;;4.85;;
22336;SDS011;14992;50.844;4.418;2023-05-07T02:51:29;6.20;;;3.50;;
22336;SDS011;14992;50.844;4.418;2023-05-07T02:54:03;10.35;;;4.15;;
22336;SDS011;14992;50.844;4.418;2023-05-07T02:56:33;8.40;;;3.45;;
22336;SDS011;14992;50.844;4.418;2023-05-07T02:59:01;6.93;;;3.53;;
22336;SDS011;14992;50.844;4.418;2023-05-07T03:01:34;6.07;;;3.20;;
22336;SDS011;14992;50.844;4.418;2023-05-07T03:04:08;6.68;;;3.78;;
22336;SDS011;14992;50.844;4.418;2023-05-07T03:06:37;6.18;;;3.58;;
22336;SDS011;14992;50.844;4.418;2023-05-07T03:09:07;8.50;;;3.53;;
22336;SDS011;14992;50.844;4.418;2023-05-07T03:11:36;5.38;;;3.33;;
22336;SDS011;14992;50.844;4.418;2023-05-07T03:14:05;8.18;;;4.05;;
22336;SDS011;14992;50.844;4.418;2023-05-07T03:16:34;6.40;;;3.92;;
22336;SDS011;14992;50.844;4.418;2023-05-07T03:19:04;8.30;;;3.60;;
22336;SDS011;14992;50.844;4.418;2023-05-07T03:21:32;5.95;;;3.40;;
22336;SDS011;14992;50.844;4.418;2023-05-07T03:24:02;7.97;;;3.58;;
22336;SDS011;14992;50.844;4.418;2023-05-07T03:26:32;7.15;;;3.72;;
22336;SDS011;14992;50.844;4.418;2023-05-07T03:29:01;8.32;;;4.70;;
22336;SDS011;14992;50.844;4.418;2023-05-07T03:31:30;10.63;;;4.38;;
22336;SDS011;14992;50.844;4.418;2023-05-07T03:34:01;7.05;;;3.53;;
22336;SDS011;14992;50.844;4.418;2023-05-07T03:36:30;8.07;;;3.78;;
22336;SDS011;14992;50.844;4.418;2023-05-07T03:38:58;6.63;;;3.47;;
22336;SDS011;14992;50.844;4.418;2023-05-07T03:41:37;5.93;;;4.57;;
22336;SDS011;14992;50.844;4.418;2023-05-07T03:44:06;6.93;;;3.47;;
22336;SDS011;14992;50.844;4.418;2023-05-07T03:46:35;6.75;;;3.75;;
22336;SDS011;14992;50.844;4.418;2023-05-07T03:49:05;8.75;;;3.50;;
22336;SDS011;14992;50.844;4.418;2023-05-07T03:51:34;10.70;;;3.97;;
22336;SDS011;14992;50.844;4.418;2023-05-07T03:54:05;5.22;;;3.45;;
22336;SDS011;14992;50.844;4.418;2023-05-07T03:56:34;8.18;;;3.67;;
22336;SDS011;14992;50.844;4.418;2023-05-07T03:59:04;8.18;;;4.45;;
22336;SDS011;14992;50.844;4.418;2023-05-07T04:01:33;7.90;;;3.90;;
22336;SDS011;14992;50.844;4.418;2023-05-07T04:04:03;6.93;;;3.67;;
22336;SDS011;14992;50.844;4.418;2023-05-07T04:06:34;8.32;;;3.97;;
22336;SDS011;14992;50.844;4.418;2023-05-07T04:09:04;7.60;;;4.03;;
22336;SDS011;14992;50.844;4.418;2023-05-07T04:11:35;7.78;;;3.72;;
22336;SDS011;14992;50.844;4.418;2023-05-07T04:14:06;8.15;;;3.97;;
22336;SDS011;14992;50.844;4.418;2023-05-07T04:16:36;8.35;;;3.58;;
22336;SDS011;14992;50.844;4.418;2023-05-07T04:19:07;6.63;;;3.67;;
22336;SDS011;14992;50.844;4.418;2023-05-07T04:21:37;9.00;;;4.07;;
22336;SDS011;14992;50.844;4.418;2023-05-07T04:24:06;10.75;;;4.57;;
22336;SDS011;14992;50.844;4.418;2023-05-07T04:26:35;9.13;;;4.10;;
22336;SDS011;14992;50.844;4.418;2023-05-07T04:29:04;8.50;;;3.75;;
22336;SDS011;14992;50.844;4.418;2023-05-07T04:31:35;8.73;;;4.22;;
22336;SDS011;14992;50.844;4.418;2023-05-07T04:34:03;10.25;;;3.83;;
22336;SDS011;14992;50.844;4.418;2023-05-07T04:36:32;5.68;;;3.33;;
22336;SDS011;14992;50.844;4.418;2023-05-07T04:39:08;8.73;;;4.13;;
22336;SDS011;14992;50.844;4.418;2023-05-07T04:41:40;7.32;;;3.47;;
22336;SDS011;14992;50.844;4.418;2023-05-07T04:44:09;7.85;;;4.03;;
22336;SDS011;14992;50.844;4.418;2023-05-07T04:46:40;8.50;;;3.92;;
22336;SDS011;14992;50.844;4.418;2023-05-07T04:49:12;10.20;;;3.85;;
22336;SDS011;14992;50.844;4.418;2023-05-07T04:51:41;6.65;;;3.35;;
22336;SDS011;14992;50.844;4.418;2023-05-07T04:54:11;10.27;;;3.45;;
22336;SDS011;14992;50.844;4.418;2023-05-07T04:56:40;8.25;;;4.35;;
22336;SDS011;14992;50.844;4.418;2023-05-07T04:59:09;8.32;;;3.63;;
22336;SDS011;14992;50.844;4.418;2023-05-07T05:01:38;7.13;;;3.13;;
22336;SDS011;14992;50.844;4.418;2023-05-07T05:04:08;7.53;;;3.40;;
22336;SDS011;14992;50.844;4.418;2023-05-07T05:06:39;6.65;;;3.35;;
22336;SDS011;14992;50.844;4.418;2023-05-07T05:09:10;8.38;;;3.53;;
22336;SDS011;14992;50.844;4.418;2023-05-07T05:11:40;6.03;;;3.35;;
22336;SDS011;14992;50.844;4.418;2023-05-07T05:14:09;10.85;;;3.42;;
22336;SDS011;14992;50.844;4.418;2023-05-07T05:16:38;3.80;;;3.25;;
22336;SDS011;14992;50.844;4.418;2023-05-07T05:19:09;9.82;;;3.53;;
22336;SDS011;14992;50.844;4.418;2023-05-07T05:21:39;7.75;;;3.60;;
22336;SDS011;14992;50.844;4.418;2023-05-07T05:24:09;7.82;;;4.07;;
22336;SDS011;14992;50.844;4.418;2023-05-07T05:26:39;7.53;;;3.22;;
22336;SDS011;14992;50.844;4.418;2023-05-07T05:29:07;7.70;;;3.47;;
22336;SDS011;14992;50.844;4.418;2023-05-07T05:36:41;15.75;;;3.78;;
22336;SDS011;14992;50.844;4.418;2023-05-07T05:39:10;7.68;;;3.22;;
22336;SDS011;14992;50.844;4.418;2023-05-07T05:41:39;8.20;;;4.15;;
22336;SDS011;14992;50.844;4.418;2023-05-07T05:44:08;10.55;;;4.03;;
22336;SDS011;14992;50.844;4.418;2023-05-07T05:46:38;7.60;;;3.55;;
22336;SDS011;14992;50.844;4.418;2023-05-07T05:49:07;9.60;;;4.32;;
22336;SDS011;14992;50.844;4.418;2023-05-07T05:51:39;7.90;;;3.45;;
22336;SDS011;14992;50.844;4.418;2023-05-07T05:54:08;9.75;;;4.45;;
22336;SDS011;14992;50.844;4.418;2023-05-07T05:56:37;5.38;;;3.78;;
22336;SDS011;14992;50.844;4.418;2023-05-07T05:59:07;6.75;;;3.97;;
22336;SDS011;14992;50.844;4.418;2023-05-07T06:01:36;9.57;;;4.07;;
22336;SDS011;14992;50.844;4.418;2023-05-07T06:04:06;6.90;;;3.55;;
22336;SDS011;14992;50.844;4.418;2023-05-07T06:06:35;5.32;;;2.92;;
22336;SDS011;14992;50.844;4.418;2023-05-07T06:09:06;8.80;;;3.00;;
22336;SDS011;14992;50.844;4.418;2023-05-07T06:11:39;7.60;;;3.35;;
22336;SDS011;14992;50.844;4.418;2023-05-07T06:14:10;8.63;;;4.03;;
22336;SDS011;14992;50.844;4.418;2023-05-07T06:16:39;9.27;;;3.50;;
22336;SDS011;14992;50.844;4.418;2023-05-07T06:19:09;7.15;;;4.00;;
22336;SDS011;14992;50.844;4.418;2023-05-07T06:21:39;6.82;;;3.58;;
22336;SDS011;14992;50.844;4.418;2023-05-07T06:24:09;6.90;;;3.97;;
22336;SDS011;14992;50.844;4.418;2023-05-07T06:26:39;8.20;;;3.75;;
22336;SDS011;14992;50.844;4.418;2023-05-07T06:29:08;5.50;;;3.70;;
22336;SDS011;14992;50.844;4.418;2023-05-07T06:31:39;7.03;;;3.53;;
22336;SDS011;14992;50.844;4.418;2023-05-07T06:34:09;11.25;;;3.85;;
22336;SDS011;14992;50.844;4.418;2023-05-07T06:36:41;7.22;;;3.20;;
22336;SDS011;14992;50.844;4.418;2023-05-07T06:39:20;7.70;;;3.17;;
22336;SDS011;14992;50.844;4.418;2023-05-07T06:41:51;9.52;;;3.42;;
22336;SDS011;14992;50.844;4.418;2023-05-07T06:44:27;6.93;;;3.10;;
22336;SDS011;14992;50.844;4.418;2023-05-07T06:47:08;5.40;;;3.40;;
22336;SDS011;14992;50.844;4.418;2023-05-07T06:49:39;8.32;;;3.53;;
22336;SDS011;14992;50.844;4.418;2023-05-07T06:52:08;4.63;;;3.13;;
22336;SDS011;14992;50.844;4.418;2023-05-07T06:54:39;7.78;;;3.72;;
22336;SDS011;14992;50.844;4.418;2023-05-07T06:57:08;6.10;;;3.60;;
22336;SDS011;14992;50.844;4.418;2023-05-07T06:59:37;7.30;;;3.60;;
22336;SDS011;14992;50.844;4.418;2023-05-07T07:02:06;5.65;;;3.30;;
22336;SDS011;14992;50.844;4.418;2023-05-07T07:04:36;9.23;;;3.72;;
22336;SDS011;14992;50.844;4.418;2023-05-07T07:07:09;6.32;;;3.25;;
22336;SDS011;14992;50.844;4.418;2023-05-07T07:09:41;7.40;;;3.33;;
22336;SDS011;14992;50.844;4.418;2023-05-07T07:12:10;7.75;;;3.42;;
22336;SDS011;14992;50.844;4.418;2023-05-07T07:14:40;8.70;;;4.00;;
22336;SDS011;14992;50.844;4.418;2023-05-07T07:17:09;7.32;;;3.78;;
22336;SDS011;14992;50.844;4.418;2023-05-07T07:19:38;5.40;;;4.25;;
22336;SDS011;14992;50.844;4.418;2023-05-07T07:22:08;8.00;;;4.32;;
22336;SDS011;14992;50.844;4.418;2023-05-07T07:24:38;8.20;;;3.67;;
22336;SDS011;14992;50.844;4.418;2023-05-07T07:27:10;6.38;;;3.45;;
22336;SDS011;14992;50.844;4.418;2023-05-07T07:29:39;5.85;;;3.38;;
22336;SDS011;14992;50.844;4.418;2023-05-07T07:32:08;3.95;;;3.15;;
22336;SDS011;14992;50.844;4.418;2023-05-07T07:34:37;7.75;;;4.60;;
22336;SDS011;14992;50.844;4.418;2023-05-07T07:37:07;4.72;;;3.17;;
22336;SDS011;14992;50.844;4.418;2023-05-07T07:39:37;6.40;;;3.42;;
22336;SDS011;14992;50.844;4.418;2023-05-07T07:42:07;6.70;;;3.78;;
22336;SDS011;14992;50.844;4.418;2023-05-07T07:44:39;10.70;;;4.70;;
22336;SDS011;14992;50.844;4.418;2023-05-07T07:47:10;8.18;;;3.40;;
22336;SDS011;14992;50.844;4.418;2023-05-07T07:49:40;6.90;;;3.53;;
22336;SDS011;14992;50.844;4.418;2023-05-07T07:52:10;9.50;;;3.78;;
22336;SDS011;14992;50.844;4.418;2023-05-07T07:54:40;7.53;;;3.95;;
22336;SDS011;14992;50.844;4.418;2023-05-07T07:57:09;6.97;;;3.88;;
22336;SDS011;14992;50.844;4.418;2023-05-07T07:59:40;6.18;;;4.20;;
22336;SDS011;14992;50.844;4.418;2023-05-07T08:02:12;8.40;;;3.75;;
22336;SDS011;14992;50.844;4.418;2023-05-07T08:04:41;6.50;;;3.47;;
22336;SDS011;14992;50.844;4.418;2023-05-07T08:07:11;5.30;;;3.45;;
22336;SDS011;14992;50.844;4.418;2023-05-07T08:09:43;7.30;;;3.78;;
22336;SDS011;14992;50.844;4.418;2023-05-07T08:12:12;7.57;;;4.68;;
22336;SDS011;14992;50.844;4.418;2023-05-07T08:14:43;8.40;;;3.92;;
22336;SDS011;14992;50.844;4.418;2023-05-07T08:17:12;9.07;;;3.97;;
22336;SDS011;14992;50.844;4.418;2023-05-07T08:19:44;6.40;;;4.13;;
22336;SDS011;14992;50.844;4.418;2023-05-07T08:22:14;9.10;;;3.67;;
22336;SDS011;14992;50.844;4.418;2023-05-07T08:24:44;8.05;;;3.42;;
22336;SDS011;14992;50.844;4.418;2023-05-07T08:27:13;6.38;;;3.40;;
22336;SDS011;14992;50.844;4.418;2023-05-07T08:29:44;9.88;;;3.83;;
22336;SDS011;14992;50.844;4.418;2023-05-07T08:32:15;6.18;;;3.95;;
22336;SDS011;14992;50.844;4.418;2023-05-07T08:34:44;6.43;;;3.67;;
22336;SDS011;14992;50.844;4.418;2023-05-07T08:37:13;8.65;;;4.10;;
22336;SDS011;14992;50.844;4.418;2023-05-07T08:39:42;7.20;;;4.13;;
22336;SDS011;14992;50.844;4.418;2023-05-07T08:42:17;6.30;;;4.45;;
22336;SDS011;14992;50.844;4.418;2023-05-07T08:44:50;9.57;;;3.72;;
22336;SDS011;14992;50.844;4.418;2023-05-07T08:47:22;6.65;;;4.78;;
22336;SDS011;14992;50.844;4.418;2023-05-07T08:50:00;7.97;;;4.93;;
22336;SDS011;14992;50.844;4.418;2023-05-07T08:52:30;7.32;;;4.30;;
22336;SDS011;14992;50.844;4.418;2023-05-07T08:54:59;7.93;;;4.70;;
22336;SDS011;14992;50.844;4.418;2023-05-07T08:57:30;6.13;;;4.25;;
22336;SDS011;14992;50.844;4.418;2023-05-07T09:00:01;9.88;;;7.10;;
22336;SDS011;14992;50.844;4.418;2023-05-07T09:02:31;7.32;;;4.82;;
22336;SDS011;14992;50.844;4.418;2023-05-07T09:05:00;7.38;;;3.90;;
22336;SDS011;14992;50.844;4.418;2023-05-07T09:07:29;8.68;;;4.20;;
22336;SDS011;14992;50.844;4.418;2023-05-07T09:10:00;8.50;;;4.10;;
22336;SDS011;14992;50.844;4.418;2023-05-07T09:12:32;4.70;;;3.72;;
22336;SDS011;14992;50.844;4.418;2023-05-07T09:15:06;9.23;;;4.75;;
22336;SDS011;14992;50.844;4.418;2023-05-07T09:17:36;9.30;;;5.07;;
22336;SDS011;14992;50.844;4.418;2023-05-07T09:20:06;10.68;;;4.97;;
22336;SDS011;14992;50.844;4.418;2023-05-07T09:22:38;6.05;;;4.47;;
22336;SDS011;14992;50.844;4.418;2023-05-07T09:25:11;7.32;;;4.30;;
22336;SDS011;14992;50.844;4.418;2023-05-07T09:27:41;6.47;;;4.43;;
22336;SDS011;14992;50.844;4.418;2023-05-07T09:30:12;4.68;;;4.20;;
22336;SDS011;14992;50.844;4.418;2023-05-07T09:32:41;8.20;;;4.22;;
22336;SDS011;14992;50.844;4.418;2023-05-07T09:35:16;9.63;;;4.75;;
22336;SDS011;14992;50.844;4.418;2023-05-07T09:37:50;6.22;;;3.47;;
22336;SDS011;14992;50.844;4.418;2023-05-07T09:40:22;5.38;;;3.88;;
22336;SDS011;14992;50.844;4.418;2023-05-07T09:42:53;4.50;;;3.45;;
22336;SDS011;14992;50.844;4.418;2023-05-07T09:45:26;6.20;;;3.80;;
22336;SDS011;14992;50.844;4.418;2023-05-07T09:47:57;8.50;;;3.67;;
22336;SDS011;14992;50.844;4.418;2023-05-07T09:50:28;5.25;;;3.65;;
22336;SDS011;14992;50.844;4.418;2023-05-07T09:53:04;6.97;;;3.65;;
22336;SDS011;14992;50.844;4.418;2023-05-07T09:55:33;7.65;;;3.63;;
22336;SDS011;14992;50.844;4.418;2023-05-07T09:58:03;4.47;;;3.45;;
22336;SDS011;14992;50.844;4.418;2023-05-07T10:00:37;5.60;;;3.00;;
22336;SDS011;14992;50.844;4.418;2023-05-07T10:03:12;4.85;;;3.55;;
22336;SDS011;14992;50.844;4.418;2023-05-07T10:05:50;6.15;;;3.50;;
22336;SDS011;14992;50.844;4.418;2023-05-07T10:08:21;6.05;;;3.33;;
22336;SDS011;14992;50.844;4.418;2023-05-07T10:10:54;5.38;;;2.75;;
22336;SDS011;14992;50.844;4.418;2023-05-07T10:13:26;4.93;;;2.42;;
22336;SDS011;14992;50.844;4.418;2023-05-07T10:15:59;3.50;;;2.22;;
22336;SDS011;14992;50.844;4.418;2023-05-07T10:18:33;4.43;;;2.78;;
22336;SDS011;14992;50.844;4.418;2023-05-07T10:21:11;5.25;;;2.75;;
22336;SDS011;14992;50.844;4.418;2023-05-07T10:23:45;2.55;;;1.98;;
22336;SDS011;14992;50.844;4.418;2023-05-07T10:26:18;4.30;;;2.30;;
22336;SDS011;14992;50.844;4.418;2023-05-07T10:28:50;6.05;;;3.28;;
22336;SDS011;14992;50.844;4.418;2023-05-07T10:31:33;5.57;;;3.35;;
22336;SDS011;14992;50.844;4.418;2023-05-07T10:34:16;5.30;;;2.80;;
22336;SDS011;14992;50.844;4.418;2023-05-07T10:36:50;3.75;;;2.78;;
22336;SDS011;14992;50.844;4.418;2023-05-07T10:39:20;4.50;;;3.00;;
22336;SDS011;14992;50.844;4.418;2023-05-07T10:41:50;7.30;;;3.05;;
22336;SDS011;14992;50.844;4.418;2023-05-07T10:44:25;5.03;;;2.75;;
22336;SDS011;14992;50.844;4.418;2023-05-07T10:47:08;2.85;;;2.25;;
22336;SDS011;14992;50.844;4.418;2023-05-07T10:52:45;2.92;;;2.50;;
22336;SDS011;14992;50.844;4.418;2023-05-07T10:56:25;5.03;;;2.75;;
22336;SDS011;14992;50.844;4.418;2023-05-07T11:02:22;4.95;;;3.13;;
22336;SDS011;14992;50.844;4.418;2023-05-07T11:07:59;4.50;;;3.03;;
22336;SDS011;14992;50.844;4.418;2023-05-07T11:13:49;4.13;;;2.95;;
22336;SDS011;14992;50.844;4.418;2023-05-07T11:16:27;5.85;;;2.83;;
22336;SDS011;14992;50.844;4.418;2023-05-07T11:19:10;4.85;;;2.38;;
22336;SDS011;14992;50.844;4.418;2023-05-07T11:21:43;3.40;;;2.28;;
22336;SDS011;14992;50.844;4.418;2023-05-07T11:24:38;5.50;;;2.70;;
22336;SDS011;14992;50.844;4.418;2023-05-07T11:27:08;5.82;;;3.47;;
22336;SDS011;14992;50.844;4.418;2023-05-07T11:29:37;4.40;;;2.03;;
22336;SDS011;14992;50.844;4.418;2023-05-07T11:32:10;25.92;;;20.73;;
22336;SDS011;14992;50.844;4.418;2023-05-07T11:34:48;2.85;;;1.98;;
22336;SDS011;14992;50.844;4.418;2023-05-07T11:37:20;3.60;;;1.67;;
22336;SDS011;14992;50.844;4.418;2023-05-07T11:40:02;3.40;;;1.50;;
22336;SDS011;14992;50.844;4.418;2023-05-07T11:42:33;2.85;;;1.65;;
22336;SDS011;14992;50.844;4.418;2023-05-07T11:45:03;3.15;;;1.63;;
22336;SDS011;14992;50.844;4.418;2023-05-07T11:47:34;4.78;;;1.77;;
22336;SDS011;14992;50.844;4.418;2023-05-07T11:50:04;2.47;;;1.83;;
22336;SDS011;14992;50.844;4.418;2023-05-07T11:52:35;2.03;;;1.83;;
22336;SDS011;14992;50.844;4.418;2023-05-07T11:55:06;2.15;;;1.50;;
22336;SDS011;14992;50.844;4.418;2023-05-07T11:57:36;2.72;;;1.55;;
22336;SDS011;14992;50.844;4.418;2023-05-07T12:00:06;3.10;;;1.70;;
22336;SDS011;14992;50.844;4.418;2023-05-07T12:02:39;2.92;;;1.73;;
22336;SDS011;14992;50.844;4.418;2023-05-07T12:05:11;2.88;;;1.90;;
22336;SDS011;14992;50.844;4.418;2023-05-07T12:07:40;3.53;;;1.58;;
22336;SDS011;14992;50.844;4.418;2023-05-07T12:10:10;2.55;;;1.50;;
22336;SDS011;14992;50.844;4.418;2023-05-07T12:12:40;2.05;;;1.60;;
22336;SDS011;14992;50.844;4.418;2023-05-07T12:15:15;3.72;;;2.03;;
22336;SDS011;14992;50.844;4.418;2023-05-07T12:17:44;2.78;;;1.67;;
22336;SDS011;14992;50.844;4.418;2023-05-07T12:20:15;4.63;;;2.13;;
22336;SDS011;14992;50.844;4.418;2023-05-07T12:22:44;2.88;;;1.58;;
22336;SDS011;14992;50.844;4.418;2023-05-07T12:25:18;3.20;;;1.60;;
22336;SDS011;14992;50.844;4.418;2023-05-07T12:27:51;2.33;;;1.80;;
22336;SDS011;14992;50.844;4.418;2023-05-07T12:30:20;2.50;;;1.65;;
22336;SDS011;14992;50.844;4.418;2023-05-07T12:32:52;3.63;;;2.03;;
22336;SDS011;14992;50.844;4.418;2023-05-07T12:35:27;3.65;;;2.10;;
22336;SDS011;14992;50.844;4.418;2023-05-07T12:37:56;4.25;;;1.92;;
22336;SDS011;14992;50.844;4.418;2023-05-07T12:40:35;2.75;;;2.10;;
22336;SDS011;14992;50.844;4.418;2023-05-07T12:43:04;2.10;;;1.52;;
22336;SDS011;14992;50.844;4.418;2023-05-07T12:45:36;2.47;;;2.03;;
22336;SDS011;14992;50.844;4.418;2023-05-07T12:48:06;3.50;;;1.88;;
22336;SDS011;14992;50.844;4.418;2023-05-07T12:50:40;3.42;;;2.35;;
22336;SDS011;14992;50.844;4.418;2023-05-07T12:53:13;3.75;;;1.88;;
22336;SDS011;14992;50.844;4.418;2023-05-07T12:55:42;3.47;;;2.40;;
22336;SDS011;14992;50.844;4.418;2023-05-07T12:58:17;3.78;;;2.22;;
22336;SDS011;14992;50.844;4.418;2023-05-07T13:00:48;2.60;;;2.35;;
22336;SDS011;14992;50.844;4.418;2023-05-07T13:03:20;3.03;;;2.60;;
22336;SDS011;14992;50.844;4.418;2023-05-07T13:05:55;3.45;;;3.10;;
22336;SDS011;14992;50.844;4.418;2023-05-07T13:08:29;5.18;;;3.90;;
22336;SDS011;14992;50.844;4.418;2023-05-07T13:11:00;4.30;;;3.70;;
22336;SDS011;14992;50.844;4.418;2023-05-07T13:13:30;4.47;;;3.53;;
22336;SDS011;14992;50.844;4.418;2023-05-07T13:16:00;4.80;;;3.83;;
22336;SDS011;14992;50.844;4.418;2023-05-07T13:18:29;4.25;;;3.85;;
22336;SDS011;14992;50.844;4.418;2023-05-07T13:21:01;5.10;;;3.85;;
22336;SDS011;14992;50.844;4.418;2023-05-07T13:23:30;4.50;;;4.10;;
22336;SDS011;14992;50.844;4.418;2023-05-07T13:25:59;4.38;;;3.97;;
22336;SDS011;14992;50.844;4.418;2023-05-07T13:28:37;4.95;;;4.45;;
22336;SDS011;14992;50.844;4.418;2023-05-07T13:31:06;5.20;;;4.70;;
22336;SDS011;14992;50.844;4.418;2023-05-07T13:33:35;6.45;;;5.05;;
22336;SDS011;14992;50.844;4.418;2023-05-07T13:36:06;7.32;;;4.85;;
22336;SDS011;14992;50.844;4.418;2023-05-07T13:38:35;6.45;;;5.43;;
22336;SDS011;14992;50.844;4.418;2023-05-07T13:41:04;6.25;;;5.50;;
22336;SDS011;14992;50.844;4.418;2023-05-07T13:43:36;7.93;;;5.78;;
22336;SDS011;14992;50.844;4.418;2023-05-07T13:46:05;7.32;;;5.93;;
22336;SDS011;14992;50.844;4.418;2023-05-07T13:48:34;7.82;;;5.85;;
22336;SDS011;14992;50.844;4.418;2023-05-07T13:51:03;8.27;;;6.22;;
22336;SDS011;14992;50.844;4.418;2023-05-07T13:53:33;7.95;;;5.97;;
22336;SDS011;14992;50.844;4.418;2023-05-07T13:56:02;7.93;;;7.13;;
22336;SDS011;14992;50.844;4.418;2023-05-07T13:58:32;7.25;;;6.43;;
22336;SDS011;14992;50.844;4.418;2023-05-07T14:01:14;8.10;;;7.22;;
22336;SDS011;14992;50.844;4.418;2023-05-07T14:03:43;8.18;;;7.15;;
22336;SDS011;14992;50.844;4.418;2023-05-07T14:06:12;8.07;;;6.85;;
22336;SDS011;14992;50.844;4.418;2023-05-07T14:08:43;8.05;;;7.25;;
22336;SDS011;14992;50.844;4.418;2023-05-07T14:11:11;8.15;;;7.32;;
22336;SDS011;14992;50.844;4.418;2023-05-07T14:13:40;8.38;;;7.30;;
22336;SDS011;14992;50.844;4.418;2023-05-07T14:16:09;7.93;;;7.15;;
22336;SDS011;14992;50.844;4.418;2023-05-07T14:18:38;9.55;;;7.35;;
22336;SDS011;14992;50.844;4.418;2023-05-07T14:21:07;8.38;;;7.40;;
22336;SDS011;14992;50.844;4.418;2023-05-07T14:23:37;8.23;;;7.43;;
22336;SDS011;14992;50.844;4.418;2023-05-07T14:26:07;10.80;;;8.77;;
22336;SDS011;14992;50.844;4.418;2023-05-07T14:28:36;10.18;;;8.57;;
22336;SDS011;14992;50.844;4.418;2023-05-07T14:31:06;10.35;;;8.95;;
22336;SDS011;14992;50.844;4.418;2023-05-07T14:33:35;11.20;;;9.77;;
22336;SDS011;14992;50.844;4.418;2023-05-07T14:38:36;9.65;;;8.52;;
22336;SDS011;14992;50.844;4.418;2023-05-07T14:41:06;11.00;;;8.93;;
22336;SDS011;14992;50.844;4.418;2023-05-07T14:43:35;10.35;;;8.95;;
22336;SDS011;14992;50.844;4.418;2023-05-07T14:46:04;9.70;;;7.53;;
22336;SDS011;14992;50.844;4.418;2023-05-07T14:48:34;9.10;;;8.20;;
22336;SDS011;14992;50.844;4.418;2023-05-07T14:51:03;9.07;;;7.60;;
22336;SDS011;14992;50.844;4.418;2023-05-07T14:53:33;9.45;;;7.43;;
22336;SDS011;14992;50.844;4.418;2023-05-07T14:56:02;9.13;;;8.23;;
22336;SDS011;14992;50.844;4.418;2023-05-07T14:58:33;10.50;;;7.70;;
22336;SDS011;14992;50.844;4.418;2023-05-07T15:01:03;9.05;;;8.05;;
22336;SDS011;14992;50.844;4.418;2023-05-07T15:03:33;8.93;;;7.65;;
22336;SDS011;14992;50.844;4.418;2023-05-07T15:06:03;10.43;;;7.28;;
22336;SDS011;14992;50.844;4.418;2023-05-07T15:08:32;8.80;;;7.95;;
22336;SDS011;14992;50.844;4.418;2023-05-07T15:11:00;8.13;;;7.30;;
22336;SDS011;14992;50.844;4.418;2023-05-07T15:13:29;7.43;;;6.72;;
22336;SDS011;14992;50.844;4.418;2023-05-07T15:16:00;7.70;;;6.18;;
22336;SDS011;14992;50.844;4.418;2023-05-07T15:18:29;8.65;;;6.75;;
22336;SDS011;14992;50.844;4.418;2023-05-07T15:20:58;8.45;;;6.65;;
22336;SDS011;14992;50.844;4.418;2023-05-07T15:23:27;9.68;;;7.45;;
22336;SDS011;14992;50.844;4.418;2023-05-07T15:25:56;8.85;;;7.95;;
22336;SDS011;14992;50.844;4.418;2023-05-07T15:28:25;8.65;;;6.95;;
22336;SDS011;14992;50.844;4.418;2023-05-07T15:30:57;8.20;;;6.65;;
22336;SDS011;14992;50.844;4.418;2023-05-07T15:33:27;8.70;;;7.72;;
22336;SDS011;14992;50.844;4.418;2023-05-07T15:35:56;9.20;;;7.63;;